Atmospheric History
12/06/2017 18:32  to  12/7/2017 18:32
Change End Date:
To complete the export process:
1) Select all of the data below
2) Copy the data to the clipboard
3) Open a word processor such as Notepad
4) Paste the data into the word processor
5) Save the file

Date/Time (MST), AirTemp, RH, Dewpoint ,AvgWindSpeed, GustWindSpeed, WindDirection, PrecipType, PrecipIntensity, PrecipAccumulation, PrecipRate
12/07/2017 18:27, 23, 42, 4 ,16, 19, NW, None, None, ,  
12/07/2017 18:17, 27, 39, 5 ,17, 21, W, None, None, ,  
12/07/2017 18:07, 24, 40, 4 ,16, 19, NW, None, None, ,  
12/07/2017 18:00, 24, 40, 4 ,17, 19, W, None, None, ,  
12/07/2017 17:57, 25, 39, 4 ,17, 19, NW, None, None, ,  
12/07/2017 17:47, 27, 38, 5 ,17, 19, NW, None, None, ,  
12/07/2017 17:37, 26, 39, 4 ,17, 19, NW, None, None, ,  
12/07/2017 17:27, 24, 39, 3 ,16, 21, NW, None, None, ,  
12/07/2017 17:23, 27, 39, 5 ,18, 21, W, None, None, ,  
12/07/2017 17:17, 24, 40, 3 ,16, 18, NW, None, None, ,  
12/07/2017 17:07, 26, 39, 5 ,16, 19, W, None, None, ,  
12/07/2017 16:57, 24, 39, 3 ,16, 20, NW, None, None, ,  
12/07/2017 16:52, 24, 39, 3 ,14, 20, W, None, None, ,  
12/07/2017 16:47, 25, 38, 4 ,16, 19, NW, None, None, ,  
12/07/2017 16:37, 26, 38, 4 ,15, 16, W, None, None, ,  
12/07/2017 16:27, 26, 37, 4 ,14, 16, W, None, None, ,  
12/07/2017 16:21, 26, 38, 4 ,13, 16, NW, None, None, ,  
12/07/2017 16:17, 26, 38, 4 ,12, 16, W, None, None, ,  
12/07/2017 16:07, 26, 38, 5 ,12, 20, NW, None, None, ,  
12/07/2017 15:57, 26, 39, 5 ,14, 20, W, None, None, ,  
12/07/2017 15:50, 27, 37, 5 ,16, 20, NW, None, None, ,  
12/07/2017 15:47, 28, 37, 5 ,14, 19, NW, None, None, ,  
12/07/2017 15:37, 27, 36, 4 ,16, 18, NW, None, None, ,  
12/07/2017 15:27, 28, 35, 4 ,15, 17, W, None, None, ,  
12/07/2017 15:19, 28, 35, 4 ,14, 16, NW, None, None, ,  
12/07/2017 15:17, 28, 35, 4 ,12, 19, NW, None, None, ,  
12/07/2017 15:07, 28, 35, 4 ,14, 19, NW, None, None, ,  
12/07/2017 14:57, 28, 36, 5 ,16, 19, NW, None, None, ,  
12/07/2017 14:48, 27, 36, 4 ,15, 17, NW, None, None, ,  
12/07/2017 14:47, 27, 36, 4 ,16, 17, NW, None, None, ,  
12/07/2017 14:37, 26, 37, 4 ,14, 18, NW, None, None, ,  
12/07/2017 14:26, 26, 37, 3 ,15, 17, NW, None, None, ,  
12/07/2017 14:17, 25, 37, 2 ,14, 17, NW, None, None, ,  
12/07/2017 14:16, 25, 37, 2 ,15, 17, NW, None, None, ,  
12/07/2017 14:06, 26, 37, 3 ,16, 17, NW, None, None, ,  
12/07/2017 13:56, 26, 37, 4 ,14, 17, NW, None, None, ,  
12/07/2017 13:46, 26, 37, 4 ,15, 18, NW, None, None, ,  
12/07/2017 13:36, 26, 37, 4 ,15, 17, NW, None, None, ,  
12/07/2017 13:26, 26, 36, 4 ,14, 17, NW, None, None, ,  
12/07/2017 13:16, 27, 36, 3 ,13, 16, W, None, None, ,  
12/07/2017 13:15, 27, 36, 4 ,12, 14, W, None, None, ,  
12/07/2017 13:06, 26, 37, 4 ,12, 16, NW, None, None, ,  
12/07/2017 12:56, 26, 38, 5 ,12, 15, NW, None, None, ,  
12/07/2017 12:46, 27, 37, 4 ,11, 19, NW, None, None, ,  
12/07/2017 12:44, 27, 37, 4 ,12, 19, NW, None, None, ,  
12/07/2017 12:36, 26, 38, 4 ,13, 17, W, None, None, ,  
12/07/2017 12:26, 26, 36, 3 ,14, 18, NW, None, None, ,  
12/07/2017 12:16, 26, 38, 4 ,13, 15, NW, None, None, ,  
12/07/2017 12:13, 26, 38, 4 ,12, 15, W, None, None, ,  
12/07/2017 12:06, 26, 37, 4 ,13, 14, NW, None, None, ,  
12/07/2017 11:56, 26, 37, 4 ,12, 14, W, None, None, ,  
12/07/2017 11:46, 26, 36, 3 ,13, 15, NW, None, None, ,  
12/07/2017 11:42, 26, 36, 3 ,13, 15, NW, None, None, ,  
12/07/2017 11:36, 26, 35, 3 ,13, 14, NW, None, None, ,  
12/07/2017 11:26, 27, 34, 2 ,14, 15, NW, None, None, ,  
12/07/2017 11:16, 26, 35, 2 ,14, 15, NW, None, None, ,  
12/07/2017 11:11, 26, 35, 2 ,13, 15, NW, None, None, ,  
12/07/2017 11:06, 26, 35, 2 ,14, 16, NW, None, None, ,  
12/07/2017 10:56, 26, 36, 2 ,13, 16, NW, None, None, ,  
12/07/2017 10:46, 24, 37, 2 ,14, 17, NW, None, None, ,  
12/07/2017 10:40, 24, 37, 2 ,14, 17, NW, None, None, ,  
12/07/2017 10:35, 24, 37, 1 ,14, 17, W, None, None, ,  
12/07/2017 10:25, 23, 38, 1 ,14, 18, NW, None, None, ,  
12/07/2017 10:15, 22, 38, 1 ,15, 18, NW, None, None, ,  
12/07/2017 10:09, 21, 38, 0 ,16, 20, NW, None, None, ,  
12/07/2017 10:05, 21, 38, 0 ,14, 20, W, None, None, ,  
12/07/2017 09:55, 21, 39, 0 ,15, 17, NW, None, None, ,  
12/07/2017 09:45, 20, 39, 0 ,14, 18, W, None, None, ,  
12/07/2017 09:38, 21, 37, -1 ,17, 19, NW, None, None, ,  
12/07/2017 09:35, 21, 37, -1 ,16, 20, NW, None, None, ,  
12/07/2017 09:25, 21, 37, -1 ,17, 21, NW, None, None, ,  
12/07/2017 09:15, 20, 38, -1 ,17, 21, NW, None, None, ,  
12/07/2017 09:07, 20, 38, -1 ,16, 18, NW, None, None, ,  
12/07/2017 09:05, 20, 38, -2 ,15, 18, NW, None, None, ,  
12/07/2017 08:55, 20, 38, -1 ,14, 18, NW, None, None, ,  
12/07/2017 08:45, 19, 39, -1 ,14, 17, NW, None, None, ,  
12/07/2017 08:36, 17, 40, -2 ,14, 18, NW, None, None, ,  
12/07/2017 08:35, 18, 40, -2 ,15, 18, NW, None, None, ,  
12/07/2017 08:25, 17, 40, -3 ,13, 16, NW, None, None, ,  
12/07/2017 08:15, 17, 40, -3 ,14, 15, NW, None, None, ,  
12/07/2017 08:05, 18, 39, -2 ,14, 17, NW, None, None, ,  
12/07/2017 08:05, 18, 40, -2 ,14, 17, NW, None, None, ,  
12/07/2017 07:55, 16, 42, -3 ,14, 16, NW, None, None, ,  
12/07/2017 07:45, 18, 40, -2 ,15, 18, W, None, None, ,  
12/07/2017 07:35, 19, 39, -1 ,14, 19, W, None, None, ,  
12/07/2017 07:34, 19, 39, -2 ,15, 19, W, None, None, ,  
12/07/2017 07:25, 18, 41, -2 ,14, 17, NW, None, None, ,  
12/07/2017 07:15, 19, 41, -1 ,14, 19, NW, None, None, ,  
12/07/2017 07:05, 17, 43, -2 ,12, 19, NW, None, None, ,  
12/07/2017 07:03, 17, 43, -1 ,14, 19, W, None, None, ,  
12/07/2017 06:55, 17, 44, -1 ,12, 19, NW, None, None, ,  
12/07/2017 06:44, 16, 45, -1 ,13, 19, NW, None, None, ,  
12/07/2017 06:34, 15, 47, -1 ,14, 17, NW, None, None, ,  
12/07/2017 06:32, 15, 47, -2 ,15, 17, NW, None, None, ,  
12/07/2017 06:24, 15, 46, -1 ,14, 17, NW, None, None, ,  
12/07/2017 06:14, 16, 46, -1 ,16, 17, NW, None, None, ,  
12/07/2017 06:04, 17, 44, -1 ,15, 20, NW, None, None, ,  
12/07/2017 06:01, 17, 44, -1 ,15, 20, NW, None, None, ,  
12/07/2017 05:54, 17, 45, -1 ,16, 19, W, None, None, ,  
12/07/2017 05:44, 16, 45, -1 ,12, 18, NW, None, None, ,  
12/07/2017 05:34, 16, 45, -1 ,15, 21, NW, None, None, ,  
12/07/2017 05:30, 17, 45, -1 ,16, 21, W, None, None, ,  
12/07/2017 05:24, 15, 46, -1 ,13, 17, NW, None, None, ,  
12/07/2017 05:14, 17, 44, -1 ,14, 20, NW, None, None, ,  
12/07/2017 05:04, 16, 45, -1 ,16, 20, NW, None, None, ,  
12/07/2017 04:54, 17, 44, -1 ,16, 21, NW, None, None, ,  
12/07/2017 04:44, 17, 45, -1 ,14, 22, NW, None, None, ,  
12/07/2017 04:34, 16, 46, -1 ,13, 18, NW, None, None, ,  
12/07/2017 04:28, 17, 44, -1 ,14, 18, W, None, None, ,  
12/07/2017 04:24, 16, 46, -1 ,14, 17, NW, None, None, ,  
12/07/2017 04:14, 15, 47, -1 ,15, 16, NW, None, None, ,  
12/07/2017 04:04, 15, 46, -2 ,14, 16, NW, None, None, ,  
12/07/2017 03:54, 16, 44, -2 ,14, 18, W, None, None, ,  
12/07/2017 03:44, 15, 45, -2 ,14, 16, W, None, None, ,  
12/07/2017 03:34, 17, 43, -1 ,14, 16, NW, None, None, ,  
12/07/2017 03:30, 17, 44, -1 ,14, 15, NW, None, None, ,  
12/07/2017 03:24, 16, 45, -2 ,13, 16, W, None, None, ,  
12/07/2017 03:14, 16, 44, -2 ,14, 15, NW, None, None, ,  
12/07/2017 03:04, 16, 43, -2 ,14, 16, W, None, None, ,  
12/07/2017 02:53, 18, 42, -1 ,15, 16, NW, None, None, ,  
12/07/2017 02:43, 18, 42, -1 ,14, 16, NW, None, None, ,  
12/07/2017 02:34, 18, 42, -1 ,14, 19, NW, None, None, ,  
12/07/2017 02:33, 18, 42, -1 ,14, 19, NW, None, None, ,  
12/07/2017 02:23, 17, 44, -1 ,14, 17, NW, None, None, ,  
12/07/2017 02:13, 17, 45, -1 ,13, 15, NW, None, None, ,  
12/07/2017 02:03, 16, 46, -1 ,13, 15, NW, None, None, ,  
12/07/2017 01:53, 15, 46, -1 ,13, 16, W, None, None, ,  
12/07/2017 01:43, 16, 45, -2 ,13, 16, NW, None, None, ,  
12/07/2017 01:37, 16, 44, -2 ,14, 17, NW, None, None, ,  
12/07/2017 01:33, 16, 44, -1 ,15, 17, NW, None, None, ,  
12/07/2017 01:23, 18, 43, -1 ,14, 16, NW, None, None, ,  
12/07/2017 01:13, 17, 44, -1 ,13, 16, NW, None, None, ,  
12/07/2017 01:03, 16, 46, -1 ,14, 16, NW, None, None, ,  
12/07/2017 00:53, 17, 45, -1 ,14, 15, W, None, None, ,  
12/07/2017 00:43, 18, 44, 0 ,12, 14, W, None, None, ,  
12/07/2017 00:40, 18, 44, 0 ,12, 14, NW, None, None, ,  
12/07/2017 00:33, 18, 43, 0 ,11, 14, NW, None, None, ,  
12/07/2017 00:23, 18, 43, 0 ,12, 15, NW, None, None, ,  
12/07/2017 00:13, 18, 44, 0 ,13, 14, NW, None, None, ,  
12/07/2017 00:03, 17, 45, -1 ,14, 16, NW, None, None, ,  
12/06/2017 23:53, 16, 45, -1 ,12, 14, NW, None, None, ,  
12/06/2017 23:43, 17, 46, 0 ,12, 14, NW, None, None, ,  
12/06/2017 23:43, 17, 46, 0 ,12, 14, NW, None, None, ,  
12/06/2017 23:33, 16, 46, -1 ,12, 14, NW, None, None, ,  
12/06/2017 23:23, 15, 47, -1 ,13, 14, NW, None, None, ,  
12/06/2017 23:13, 16, 47, -1 ,13, 14, W, None, None, ,  
12/06/2017 23:03, 16, 48, 0 ,12, 14, W, None, None, ,  
12/06/2017 22:53, 14, 51, -1 ,12, 14, NW, None, None, ,  
12/06/2017 22:46, 15, 50, -1 ,11, 13, W, None, None, ,  
12/06/2017 22:42, 15, 50, -1 ,11, 12, NW, None, None, ,  
12/06/2017 22:32, 15, 49, 0 ,11, 13, NW, None, None, ,  
12/06/2017 22:22, 15, 51, 0 ,12, 14, NW, None, None, ,  
12/06/2017 22:12, 15, 50, 0 ,12, 16, NW, None, None, ,  
12/06/2017 22:02, 15, 50, 0 ,12, 16, W, None, None, ,  
12/06/2017 21:52, 15, 50, 0 ,12, 15, W, None, None, ,  
12/06/2017 21:49, 17, 48, 1 ,11, 15, NW, None, None, ,  
12/06/2017 21:42, 17, 48, 1 ,12, 14, W, None, None, ,  
12/06/2017 21:32, 17, 49, 1 ,10, 15, W, None, None, ,  
12/06/2017 21:22, 15, 51, 0 ,12, 14, W, None, None, ,  
12/06/2017 21:12, 15, 52, 0 ,12, 13, NW, None, None, ,  
12/06/2017 21:02, 14, 51, 0 ,11, 12, W, None, None, ,  
12/06/2017 20:52, 14, 51, 0 ,11, 12, W, None, None, ,  
12/06/2017 20:52, 14, 51, 0 ,10, 12, W, None, None, ,  
12/06/2017 20:42, 15, 51, 0 ,10, 12, W, None, None, ,  
12/06/2017 20:32, 13, 52, -1 ,10, 12, W, None, None, ,  
12/06/2017 20:22, 13, 49, -2 ,10, 12, W, None, None, ,  
12/06/2017 20:12, 17, 44, -1 ,11, 12, NW, None, None, ,  
12/06/2017 20:02, 18, 43, -1 ,11, 13, NW, None, None, ,  
12/06/2017 19:55, 16, 44, -1 ,11, 13, NW, None, None, ,  
12/06/2017 19:52, 16, 44, -1 ,11, 12, NW, None, None, ,  
12/06/2017 19:42, 17, 44, -1 ,12, 14, NW, None, None, ,  
12/06/2017 19:32, 17, 45, 0 ,12, 16, NW, None, None, ,  
12/06/2017 19:22, 15, 49, 0 ,15, 16, NW, None, None, ,  
12/06/2017 19:12, 15, 48, 0 ,12, 14, NW, None, None, ,  
12/06/2017 19:02, 17, 47, 0 ,13, 15, NW, None, None, ,  
12/06/2017 18:58, 16, 48, 0 ,14, 15, NW, None, None, ,  
12/06/2017 18:52, 18, 46, 1 ,14, 15, NW, None, None, ,  
12/06/2017 18:42, 17, 49, 2 ,13, 14, NW, None, None, ,  
12/06/2017 18:32, 15, 53, 1 ,12, 12, NW, None, None, ,  
Change End Date:

Copyright © 1998-2015 Vaisala, Inc.
All Rights Reserved
Send comments about the data to:
SCAN Web ® is a registered trademark of Vaisala, Inc.
SCAN Web Version 6.0